Time;durP1;ratioP1;P1;durP2;ratioP2;P2;SDS_P1;SDS_P2;PMS_P1;PMS_P2;Temp;Humidity;BMP_temperature;BMP_pressure;BME280_temperature;BME280_humidity;BME280_pressure;Samples;Min_cycle;Max_cycle;Signal;HPM_P1;HPM_P2
2022/11/30 00:01:21;;;;;;;8.70;5.73;;;6.60;97.30;;;;;;5056429;28;20425;-88
2022/11/30 00:03:47;;;;;;;5.13;2.97;;;6.60;97.30;;;;;;5056203;28;20457;-88
2022/11/30 00:06:15;;;;;;;15.47;4.90;;;6.60;97.30;;;;;;5045623;28;20559;-89
2022/11/30 00:08:41;;;;;;;3.73;2.43;;;6.60;97.30;;;;;;5054252;28;20457;-88
2022/11/30 00:11:07;;;;;;;4.90;4.60;;;6.60;97.30;;;;;;5045168;28;20426;-89
2022/11/30 00:13:33;;;;;;;12.30;4.00;;;6.60;97.30;;;;;;5038550;28;20475;-89
2022/11/30 00:16:02;;;;;;;9.80;4.07;;;6.60;97.30;;;;;;5056635;28;20454;-88
2022/11/30 00:18:27;;;;;;;6.13;2.90;;;6.60;97.30;;;;;;5043653;28;20676;-88
2022/11/30 00:20:54;;;;;;;6.00;3.93;;;6.50;97.30;;;;;;5074997;28;20417;-89
2022/11/30 00:23:19;;;;;;;7.27;3.97;;;6.50;97.30;;;;;;5055041;28;20198;-89
2022/11/30 00:25:45;;;;;;;11.07;6.57;;;6.50;97.30;;;;;;5051252;28;20815;-88
2022/11/30 00:28:11;;;;;;;8.00;5.10;;;6.40;97.30;;;;;;5054950;28;20218;-88
2022/11/30 00:30:36;;;;;;;5.50;3.70;;;6.50;97.30;;;;;;5051354;28;20649;-88
2022/11/30 00:33:02;;;;;;;5.53;4.00;;;6.40;97.30;;;;;;5046525;28;20207;-88
2022/11/30 00:35:27;;;;;;;3.57;3.37;;;6.40;97.30;;;;;;5048758;28;20211;-89
2022/11/30 00:37:53;;;;;;;4.70;3.97;;;6.40;97.30;;;;;;5059193;28;20241;-89
2022/11/30 00:40:18;;;;;;;21.33;7.20;;;6.40;97.30;;;;;;5059702;28;20179;-88
2022/11/30 00:42:44;;;;;;;13.57;7.07;;;6.40;97.30;;;;;;5059730;28;20687;-88
2022/11/30 00:45:09;;;;;;;7.70;4.00;;;6.40;97.30;;;;;;5065829;28;20212;-88
2022/11/30 00:47:35;;;;;;;11.00;5.27;;;6.40;97.30;;;;;;5040602;28;20210;-88
2022/11/30 00:50:02;;;;;;;4.67;3.97;;;6.40;97.30;;;;;;5051786;28;20199;-89
2022/11/30 00:52:29;;;;;;;10.43;7.37;;;6.40;97.30;;;;;;5059102;28;20185;-88
2022/11/30 00:54:55;;;;;;;8.13;5.60;;;6.40;97.30;;;;;;5059226;28;20898;-88
2022/11/30 00:57:20;;;;;;;7.93;4.20;;;6.40;97.30;;;;;;5065345;28;20421;-89
2022/11/30 00:59:46;;;;;;;16.53;4.43;;;6.40;97.30;;;;;;5060470;28;20409;-88
2022/11/30 01:02:11;;;;;;;9.07;4.77;;;6.40;97.30;;;;;;5057365;28;20179;-89
2022/11/30 01:04:37;;;;;;;3.20;3.00;;;6.50;97.30;;;;;;5058589;28;20533;-87
2022/11/30 01:07:02;;;;;;;3.30;3.10;;;6.50;97.30;;;;;;5064267;28;20175;-88
2022/11/30 01:09:28;;;;;;;5.57;4.87;;;6.50;97.30;;;;;;5058326;28;20207;-88
2022/11/30 01:11:53;;;;;;;3.60;3.40;;;6.50;97.30;;;;;;5096313;28;20183;-89
2022/11/30 01:14:19;;;;;;;6.63;5.43;;;6.50;97.30;;;;;;5075074;28;20187;-89
2022/11/30 01:16:44;;;;;;;4.20;3.77;;;6.50;97.30;;;;;;5076859;28;20199;-89
2022/11/30 01:19:10;;;;;;;10.50;5.13;;;6.50;97.30;;;;;;5070744;28;20768;-89
2022/11/30 01:21:35;;;;;;;5.50;3.97;;;6.50;97.30;;;;;;5074863;28;20225;-88
2022/11/30 01:24:01;;;;;;;3.10;2.90;;;6.50;97.30;;;;;;5068946;28;20226;-88
2022/11/30 01:26:26;;;;;;;4.30;2.30;;;6.50;97.30;;;;;;5061771;28;20206;-89
2022/11/30 01:28:54;;;;;;;7.20;5.73;;;6.50;97.30;;;;;;5051355;28;20260;-88
2022/11/30 01:31:20;;;;;;;9.30;5.43;;;6.50;97.30;;;;;;5078513;28;20175;-89
2022/11/30 01:33:50;;;;;;;7.70;3.27;;;6.50;97.30;;;;;;5079348;28;20422;-88
2022/11/30 01:36:20;;;;;;;4.67;3.00;;;6.50;97.30;;;;;;5059324;28;20985;-88
2022/11/30 01:38:48;;;;;;;6.23;3.33;;;6.50;97.30;;;;;;5071990;28;20429;-88
2022/11/30 01:41:18;;;;;;;6.07;3.53;;;6.60;97.30;;;;;;5066529;28;20452;-88
2022/11/30 01:43:54;;;;;;;4.93;4.03;;;6.60;97.30;;;;;;5071158;28;20429;-88
2022/11/30 01:46:37;;;;;;;10.60;5.50;;;6.60;97.30;;;;;;5058376;28;20900;-88
2022/11/30 01:49:08;;;;;;;8.47;3.60;;;6.60;97.30;;;;;;5063437;28;20460;-88
2022/11/30 01:52:00;;;;;;;4.53;3.50;;;6.60;97.30;;;;;;5058780;28;20452;-89
2022/11/30 01:54:33;;;;;;;3.87;3.50;;;6.50;97.30;;;;;;5053543;28;20417;-88
2022/11/30 01:57:04;;;;;;;4.30;3.33;;;6.50;97.30;;;;;;5045537;28;20524;-88
2022/11/30 01:59:30;;;;;;;8.57;6.13;;;6.50;97.30;;;;;;5070245;28;20423;-89
2022/11/30 02:01:56;;;;;;;4.80;4.00;;;6.50;97.30;;;;;;5057124;28;20516;-87
2022/11/30 02:04:27;;;;;;;13.77;5.07;;;6.50;97.30;;;;;;5074741;28;20658;-88
2022/11/30 02:06:53;;;;;;;3.80;2.70;;;6.50;97.30;;;;;;5056814;28;20418;-88
2022/11/30 02:09:21;;;;;;;7.50;5.97;;;6.40;97.30;;;;;;5069738;28;20484;-88
2022/11/30 02:11:47;;;;;;;7.77;3.90;;;6.40;97.30;;;;;;5073257;28;20478;-88
2022/11/30 02:14:42;;;;;;;1.83;1.60;;;6.40;97.30;;;;;;5061623;28;20413;-88
2022/11/30 02:17:20;;;;;;;3.73;2.73;;;6.40;97.30;;;;;;5044615;28;20428;-88
2022/11/30 02:20:17;;;;;;;3.97;3.73;;;6.50;97.30;;;;;;5060780;28;20950;-89
2022/11/30 02:23:27;;;;;;;6.10;2.10;;;6.50;97.30;;;;;;5074307;28;20475;-88
2022/11/30 02:26:15;;;;;;;6.20;4.77;;;6.50;97.30;;;;;;5061868;28;20447;-88
2022/11/30 02:29:05;;;;;;;7.97;4.00;;;6.50;97.30;;;;;;5061921;28;20506;-88
2022/11/30 02:31:41;;;;;;;6.03;3.63;;;6.50;97.30;;;;;;5063609;28;20422;-88
2022/11/30 02:34:09;;;;;;;8.33;4.10;;;6.50;97.30;;;;;;5037607;28;20433;-88
2022/11/30 02:36:35;;;;;;;4.70;3.63;;;6.40;97.30;;;;;;5060191;28;20452;-88
2022/11/30 02:39:01;;;;;;;4.77;3.00;;;6.40;97.30;;;;;;5063595;28;20425;-88
2022/11/30 02:41:37;;;;;;;12.83;4.80;;;6.40;97.30;;;;;;5056696;28;20436;-88
2022/11/30 02:44:04;;;;;;;9.80;5.10;;;6.40;97.30;;;;;;5044289;28;20413;-87
2022/11/30 02:47:02;;;;;;;12.30;4.47;;;6.40;97.30;;;;;;5073580;28;20528;-88
2022/11/30 02:49:40;;;;;;;6.43;4.27;;;6.30;97.30;;;;;;5069458;28;20983;-88
2022/11/30 02:52:09;;;;;;;2.73;2.53;;;6.30;97.30;;;;;;5048491;28;20432;-88
2022/11/30 02:57:14;;;;;;;7.60;4.07;;;6.30;97.30;;;;;;5107935;27;20606;-89
2022/11/30 02:59:40;;;;;;;9.83;4.53;;;6.30;97.30;;;;;;5069684;22;20500;-87
2022/11/30 03:02:15;;;;;;;5.60;3.87;;;6.30;97.30;;;;;;4982880;28;20178;-87
2022/11/30 03:05:07;;;;;;;2.60;2.40;;;6.30;97.30;;;;;;4986386;28;20410;-86
2022/11/30 03:08:17;;;;;;;5.70;5.07;;;6.20;97.30;;;;;;5043342;28;20884;-87
2022/11/30 03:11:16;;;;;;;4.23;3.87;;;6.20;97.30;;;;;;4986747;28;20430;-88
2022/11/30 03:13:47;;;;;;;4.87;3.73;;;6.20;97.30;;;;;;4997667;28;20457;-86
2022/11/30 03:16:16;;;;;;;8.40;4.23;;;6.20;97.30;;;;;;4998836;28;20463;-88
2022/11/30 03:19:07;;;;;;;6.43;4.57;;;6.20;97.30;;;;;;5038949;23;20505;-87
2022/11/30 03:21:33;;;;;;;3.83;3.17;;;6.10;97.30;;;;;;5045599;28;20517;-87
2022/11/30 03:23:58;;;;;;;3.97;3.77;;;6.10;97.30;;;;;;5068276;28;20513;-88
2022/11/30 03:26:24;;;;;;;4.07;3.43;;;6.10;97.30;;;;;;5067946;28;20183;-85
2022/11/30 03:28:49;;;;;;;4.80;3.30;;;6.10;97.30;;;;;;5073156;28;20240;-88
2022/11/30 03:31:18;;;;;;;2.93;2.70;;;6.10;97.30;;;;;;5087842;28;20186;-88
2022/11/30 03:33:46;;;;;;;4.40;4.10;;;6.10;97.30;;;;;;5088350;28;20560;-87
2022/11/30 03:36:15;;;;;;;5.70;3.33;;;6.10;97.30;;;;;;5088018;28;20482;-88
2022/11/30 03:38:47;;;;;;;4.43;3.30;;;6.10;97.30;;;;;;5074145;22;20613;-88
2022/11/30 03:44:46;;;;;;;9.93;5.77;;;6.00;97.30;;;;;;5078204;28;20941;-87
2022/11/30 03:47:37;;;;;;;20.07;5.90;;;6.00;97.30;;;;;;5022448;28;21153;-88
2022/11/30 03:50:48;;;;;;;;;;;;;;;;;;;;;
2022/11/30 03:53:17;;;;;;;6.43;4.13;;;6.00;97.30;;;;;;5093495;28;20417;-88
2022/11/30 03:55:43;;;;;;;8.30;7.17;;;5.90;97.30;;;;;;5077740;28;20453;-86
2022/11/30 03:58:09;;;;;;;12.30;4.90;;;5.90;97.30;;;;;;5078186;28;20414;-88
2022/11/30 04:00:34;;;;;;;6.10;4.20;;;5.90;97.30;;;;;;5082807;28;20752;-87
2022/11/30 04:03:00;;;;;;;9.17;7.37;;;5.90;97.30;;;;;;5087526;28;20232;-88
2022/11/30 04:05:26;;;;;;;7.13;3.13;;;5.90;97.30;;;;;;5087120;28;20182;-88
2022/11/30 04:07:51;;;;;;;12.53;3.67;;;5.90;97.30;;;;;;5077856;28;20555;-87
2022/11/30 04:10:17;;;;;;;10.03;6.27;;;5.80;97.30;;;;;;5056611;28;20589;-87
2022/11/30 04:12:42;;;;;;;14.80;4.20;;;5.80;97.30;;;;;;5062972;28;20237;-86
2022/11/30 04:15:08;;;;;;;10.27;5.23;;;5.80;97.30;;;;;;5069050;28;20267;-87
2022/11/30 04:17:34;;;;;;;5.87;2.80;;;5.80;97.30;;;;;;5063072;28;20223;-87
2022/11/30 04:19:59;;;;;;;13.13;5.17;;;5.80;97.30;;;;;;5070010;28;20578;-88
2022/11/30 04:22:25;;;;;;;5.40;4.23;;;5.80;97.30;;;;;;5073423;28;20226;-86
2022/11/30 04:24:50;;;;;;;12.10;7.23;;;5.80;97.30;;;;;;5073397;28;20179;-89
2022/11/30 04:27:16;;;;;;;4.40;3.03;;;5.80;97.30;;;;;;5073262;28;20531;-89
2022/11/30 04:29:44;;;;;;;7.03;3.50;;;5.80;97.30;;;;;;5068475;28;20199;-87
2022/11/30 04:32:09;;;;;;;3.30;3.10;;;5.90;97.30;;;;;;5065268;28;20262;-88
2022/11/30 04:34:35;;;;;;;9.00;5.00;;;5.90;97.30;;;;;;5073438;28;20516;-87
2022/11/30 04:37:00;;;;;;;5.20;2.80;;;5.90;97.30;;;;;;5073002;28;20214;-88
2022/11/30 04:39:26;;;;;;;3.43;3.00;;;5.90;97.30;;;;;;5073121;28;20203;-87
2022/11/30 04:41:51;;;;;;;5.73;3.77;;;5.90;97.30;;;;;;5073340;28;20179;-87
2022/11/30 04:44:17;;;;;;;14.23;5.27;;;5.90;97.30;;;;;;5055022;28;20257;-87
2022/11/30 04:46:42;;;;;;;11.97;4.83;;;5.90;97.30;;;;;;5070998;28;20183;-88
2022/11/30 04:49:08;;;;;;;10.07;4.10;;;6.00;97.30;;;;;;5072633;28;20234;-88
2022/11/30 04:51:33;;;;;;;16.90;7.10;;;6.00;97.30;;;;;;5072883;28;20179;-88
2022/11/30 04:53:59;;;;;;;5.30;3.43;;;6.00;97.30;;;;;;5073741;28;20179;-88
2022/11/30 04:56:24;;;;;;;9.67;5.87;;;6.00;97.30;;;;;;5073738;28;20203;-88
2022/11/30 04:58:50;;;;;;;10.13;5.03;;;6.00;97.30;;;;;;5072979;28;20199;-88
2022/11/30 05:01:15;;;;;;;9.87;7.00;;;6.00;97.30;;;;;;5072904;28;20194;-87
2022/11/30 05:03:41;;;;;;;4.20;3.60;;;6.00;97.30;;;;;;5073824;28;20684;-88
2022/11/30 05:06:06;;;;;;;7.87;4.77;;;6.10;97.30;;;;;;5072674;28;20195;-87
2022/11/30 05:08:32;;;;;;;5.40;4.90;;;6.10;97.30;;;;;;5073009;28;20252;-88
2022/11/30 05:10:58;;;;;;;10.03;6.47;;;6.10;97.30;;;;;;5074734;28;20187;-87
2022/11/30 05:13:25;;;;;;;5.57;4.10;;;6.10;97.30;;;;;;5077835;28;20198;-87
2022/11/30 05:15:52;;;;;;;14.67;6.80;;;6.10;97.30;;;;;;5078438;28;20199;-88
2022/11/30 05:18:18;;;;;;;6.73;6.00;;;6.10;97.30;;;;;;5080552;28;20521;-88
2022/11/30 05:20:49;;;;;;;9.00;6.13;;;6.10;97.30;;;;;;5072523;28;20498;-88
2022/11/30 05:23:15;;;;;;;7.07;5.83;;;6.10;97.30;;;;;;5072863;28;20521;-87
2022/11/30 05:25:41;;;;;;;10.50;5.03;;;6.10;97.30;;;;;;5072763;28;20417;-88
2022/11/30 05:28:07;;;;;;;8.10;2.80;;;6.10;97.30;;;;;;5072840;28;20850;-88
2022/11/30 05:30:32;;;;;;;4.67;4.37;;;6.10;97.30;;;;;;5059680;28;20452;-87
2022/11/30 05:32:58;;;;;;;5.40;4.67;;;6.10;97.30;;;;;;5072675;28;20194;-87
2022/11/30 05:35:26;;;;;;;8.07;5.20;;;6.10;97.30;;;;;;5071766;28;20249;-88
2022/11/30 05:37:51;;;;;;;8.07;3.37;;;6.10;97.30;;;;;;5071633;28;20186;-89
2022/11/30 05:40:17;;;;;;;9.60;5.00;;;6.00;97.30;;;;;;5068738;28;20434;-87
2022/11/30 05:42:43;;;;;;;3.37;3.17;;;6.10;97.30;;;;;;5064363;28;20185;-88
2022/11/30 05:45:09;;;;;;;7.03;4.50;;;6.10;97.30;;;;;;5058519;28;20187;-89
2022/11/30 05:47:34;;;;;;;3.37;3.20;;;6.10;97.30;;;;;;5066424;28;20172;-89
2022/11/30 05:50:00;;;;;;;4.00;3.17;;;6.10;97.30;;;;;;5067273;28;20459;-88
2022/11/30 05:52:25;;;;;;;20.93;5.80;;;6.10;97.30;;;;;;5065724;28;20180;-87
2022/11/30 05:54:51;;;;;;;9.33;4.20;;;6.10;97.30;;;;;;5062095;28;20178;-88
2022/11/30 05:57:16;;;;;;;14.03;5.53;;;6.10;97.30;;;;;;5065301;28;20179;-87
2022/11/30 05:59:42;;;;;;;12.57;7.07;;;6.10;97.30;;;;;;5065707;28;20234;-88
2022/11/30 06:02:08;;;;;;;9.00;5.43;;;6.10;97.30;;;;;;5063493;28;20182;-88
2022/11/30 06:04:34;;;;;;;8.17;3.37;;;6.10;97.30;;;;;;5071979;28;20190;-89
2022/11/30 06:06:59;;;;;;;6.87;4.20;;;6.00;97.30;;;;;;5068269;28;20175;-89
2022/11/30 06:09:25;;;;;;;5.20;3.17;;;6.00;97.30;;;;;;5075637;28;20206;-90
2022/11/30 06:11:50;;;;;;;8.63;6.47;;;5.90;97.30;;;;;;5081566;28;20171;-89
2022/11/30 06:14:16;;;;;;;5.13;3.27;;;5.90;97.30;;;;;;5082749;28;20218;-90
2022/11/30 06:16:42;;;;;;;5.90;4.20;;;5.90;97.30;;;;;;5079739;28;20206;-88
2022/11/30 06:19:07;;;;;;;8.33;6.50;;;5.80;97.30;;;;;;5078836;28;20450;-89
2022/11/30 06:21:36;;;;;;;10.70;5.40;;;5.80;97.30;;;;;;5075287;28;20171;-91
2022/11/30 06:24:01;;;;;;;5.23;4.93;;;5.80;97.30;;;;;;5078851;28;20538;-89
2022/11/30 06:26:27;;;;;;;4.60;3.63;;;5.80;97.30;;;;;;5068461;28;20527;-89
2022/11/30 06:28:53;;;;;;;6.80;4.60;;;5.80;97.30;;;;;;5066457;28;20207;-89
2022/11/30 06:31:18;;;;;;;11.57;6.20;;;5.70;97.30;;;;;;5067464;28;20183;-89
2022/11/30 06:33:44;;;;;;;16.60;5.47;;;5.70;97.30;;;;;;5070723;28;20187;-89
2022/11/30 06:36:09;;;;;;;10.40;3.03;;;5.60;97.30;;;;;;5067570;28;20680;-89
2022/11/30 06:38:35;;;;;;;9.17;6.00;;;5.60;97.30;;;;;;5067388;28;20680;-89
2022/11/30 06:41:07;;;;;;;12.13;5.00;;;5.60;97.30;;;;;;5071321;28;20656;-88
2022/11/30 06:43:37;;;;;;;5.53;3.97;;;5.60;97.30;;;;;;5070997;28;20185;-89
2022/11/30 06:46:03;;;;;;;21.43;8.03;;;5.60;97.30;;;;;;5070951;28;20504;-88
2022/11/30 06:48:32;;;;;;;13.67;5.37;;;5.60;97.30;;;;;;5065394;28;20418;-89
2022/11/30 06:50:57;;;;;;;13.20;7.97;;;5.60;97.30;;;;;;5057920;28;20433;-89
2022/11/30 06:53:24;;;;;;;13.57;9.20;;;5.60;97.30;;;;;;5067655;28;20786;-89
2022/11/30 06:55:49;;;;;;;10.63;7.03;;;5.50;97.30;;;;;;5066504;28;20210;-88
2022/11/30 06:58:15;;;;;;;5.27;4.73;;;5.50;97.30;;;;;;5069352;28;20417;-89
2022/11/30 07:00:42;;;;;;;10.33;7.10;;;5.50;97.30;;;;;;5060635;28;20195;-88
2022/11/30 07:03:09;;;;;;;4.70;4.13;;;5.50;97.30;;;;;;5062026;28;20265;-88
2022/11/30 07:05:44;;;;;;;18.90;8.57;;;5.50;97.30;;;;;;5066409;28;20422;-89
2022/11/30 07:10:58;;;;;;;10.30;6.40;;;5.40;97.30;;;;;;5070634;28;20413;-89
2022/11/30 07:14:13;;;;;;;3.47;3.27;;;5.50;97.30;;;;;;5069607;28;20425;-89
2022/11/30 07:16:39;;;;;;;18.10;6.43;;;5.50;97.30;;;;;;5070091;28;20465;-88
2022/11/30 07:19:08;;;;;;;26.07;9.63;;;5.40;97.30;;;;;;5065275;22;20578;-88
2022/11/30 07:22:18;;;;;;;16.70;6.67;;;5.40;97.30;;;;;;5032648;28;20175;-89
2022/11/30 07:28:07;;;;;;;7.77;5.97;;;5.40;97.30;;;;;;4959863;28;20397;-88
2022/11/30 07:30:38;;;;;;;17.70;6.37;;;5.40;97.30;;;;;;5050236;23;20486;-87
2022/11/30 07:33:07;;;;;;;5.53;5.23;;;5.40;97.30;;;;;;5051197;28;20456;-88
2022/11/30 07:35:35;;;;;;;43.47;5.20;;;5.40;97.30;;;;;;5047858;28;20716;-86
2022/11/30 07:38:16;;;;;;;7.13;5.80;;;5.40;97.30;;;;;;5043433;28;20432;-88
2022/11/30 07:41:16;;;;;;;8.33;4.77;;;5.40;97.30;;;;;;5023700;28;20478;-87
2022/11/30 07:43:48;;;;;;;14.57;5.17;;;5.30;97.30;;;;;;5034297;28;20450;-89
2022/11/30 07:46:48;;;;;;;12.23;7.30;;;5.30;97.30;;;;;;5035899;28;20431;-89
2022/11/30 07:49:17;;;;;;;8.00;5.77;;;5.30;97.30;;;;;;5034206;28;20446;-89
2022/11/30 07:51:57;;;;;;;10.97;7.27;;;5.30;97.30;;;;;;5033757;28;20423;-88
2022/11/30 07:54:26;;;;;;;13.17;6.97;;;5.30;97.30;;;;;;5034342;28;20422;-88
2022/11/30 07:56:58;;;;;;;11.80;7.90;;;5.30;97.30;;;;;;5033303;28;20462;-87
2022/11/30 07:59:26;;;;;;;16.00;6.17;;;5.30;97.30;;;;;;5026686;28;20541;-89
2022/11/30 08:01:54;;;;;;;16.90;6.73;;;5.30;97.30;;;;;;5032144;28;20910;-88
2022/11/30 08:04:25;;;;;;;23.03;12.00;;;5.30;97.30;;;;;;5036422;28;20419;-88
2022/11/30 08:06:55;;;;;;;15.70;8.17;;;5.30;97.30;;;;;;5029769;28;20425;-87
2022/11/30 08:09:28;;;;;;;12.20;6.77;;;5.30;97.30;;;;;;5035338;28;20442;-88
2022/11/30 08:11:56;;;;;;;13.93;7.30;;;5.30;97.30;;;;;;5033505;28;20415;-88
2022/11/30 08:14:21;;;;;;;10.70;8.97;;;5.30;97.30;;;;;;5036604;28;20435;-89
2022/11/30 08:16:47;;;;;;;20.73;6.87;;;5.40;97.30;;;;;;5031079;28;20462;-89
2022/11/30 08:19:15;;;;;;;24.57;9.83;;;5.40;97.30;;;;;;5033429;28;20196;-89
2022/11/30 08:21:44;;;;;;;8.13;6.63;;;5.40;97.30;;;;;;5032710;28;20428;-89
2022/11/30 08:24:18;;;;;;;7.17;6.33;;;5.40;97.30;;;;;;5030178;28;20415;-89
2022/11/30 08:26:51;;;;;;;18.50;10.20;;;5.40;97.30;;;;;;5031363;28;20448;-89
2022/11/30 08:29:17;;;;;;;14.60;8.70;;;5.50;97.30;;;;;;5029472;28;20481;-90
2022/11/30 08:31:43;;;;;;;10.53;5.30;;;5.50;97.30;;;;;;5033806;28;20791;-89
2022/11/30 08:34:11;;;;;;;16.80;8.90;;;5.60;97.30;;;;;;5033691;28;20419;-90
2022/11/30 08:36:38;;;;;;;15.87;9.93;;;5.60;97.30;;;;;;5034477;28;20612;-90
2022/11/30 08:39:04;;;;;;;15.47;8.83;;;5.60;97.30;;;;;;5033545;28;20446;-90
2022/11/30 08:41:31;;;;;;;8.80;7.77;;;5.70;97.30;;;;;;5033013;28;20420;-90
2022/11/30 08:43:57;;;;;;;9.47;4.67;;;5.70;97.30;;;;;;5032788;28;20506;-90
2022/11/30 08:46:23;;;;;;;18.40;8.43;;;5.80;97.30;;;;;;5038012;28;20558;-86
2022/11/30 08:48:50;;;;;;;17.23;9.67;;;5.80;97.30;;;;;;5028983;28;20208;-86
2022/11/30 08:51:17;;;;;;;18.70;8.73;;;5.80;97.30;;;;;;5030212;28;20430;-86
2022/11/30 08:53:45;;;;;;;9.03;3.17;;;5.80;97.30;;;;;;5032781;28;20894;-87
2022/11/30 08:56:21;;;;;;;8.47;4.30;;;5.80;97.30;;;;;;5032201;28;20451;-86
2022/11/30 08:58:47;;;;;;;8.53;7.07;;;5.80;97.30;;;;;;5034725;28;20442;-88
2022/11/30 09:01:16;;;;;;;17.20;6.57;;;5.80;97.30;;;;;;5027711;28;20419;-89
2022/11/30 09:03:43;;;;;;;13.30;7.87;;;5.90;97.30;;;;;;5048711;23;20250;-85
2022/11/30 09:06:13;;;;;;;23.73;9.53;;;5.90;97.30;;;;;;5057884;28;20452;-85
2022/11/30 09:08:41;;;;;;;13.33;7.03;;;5.90;97.30;;;;;;5057767;28;20403;-83
2022/11/30 09:11:12;;;;;;;12.70;7.87;;;5.90;97.30;;;;;;5055085;28;20414;-86
2022/11/30 09:13:38;;;;;;;24.77;5.03;;;5.80;97.30;;;;;;5065165;28;20438;-86
2022/11/30 09:16:04;;;;;;;18.07;5.23;;;5.80;97.30;;;;;;5049884;28;20501;-85
2022/11/30 09:18:31;;;;;;;16.67;6.70;;;5.80;97.30;;;;;;5051938;28;20415;-83
2022/11/30 09:21:06;;;;;;;16.77;8.30;;;5.80;97.30;;;;;;5051611;28;20472;-83
2022/11/30 09:23:32;;;;;;;49.20;9.27;;;5.90;97.30;;;;;;5054602;28;20402;-84
2022/11/30 09:26:00;;;;;;;19.57;6.30;;;6.00;97.30;;;;;;5050562;28;20429;-86
2022/11/30 09:28:26;;;;;;;14.60;7.23;;;6.00;97.30;;;;;;5052046;28;20426;-85
2022/11/30 09:30:52;;;;;;;18.77;13.63;;;6.00;97.30;;;;;;5045487;28;20441;-84
2022/11/30 09:33:18;;;;;;;11.27;7.37;;;6.00;97.30;;;;;;5052291;28;20471;-85
2022/11/30 09:35:44;;;;;;;17.57;8.50;;;6.10;97.30;;;;;;5051428;28;20991;-86
2022/11/30 09:38:10;;;;;;;17.57;6.47;;;6.10;97.30;;;;;;5054227;28;20555;-84
2022/11/30 09:40:39;;;;;;;16.77;8.97;;;6.10;97.30;;;;;;5049183;28;20426;-84
2022/11/30 09:43:26;;;;;;;21.00;8.77;;;6.20;97.30;;;;;;5050936;28;20649;-85
2022/11/30 09:46:02;;;;;;;11.73;6.27;;;6.20;97.30;;;;;;5053713;28;20549;-85
2022/11/30 09:48:44;;;;;;;15.63;5.80;;;6.20;97.30;;;;;;5055068;28;20413;-85
2022/11/30 09:51:17;;;;;;;7.00;4.43;;;6.20;97.30;;;;;;5047436;28;20881;-83
2022/11/30 09:53:50;;;;;;;14.73;10.40;;;6.10;97.30;;;;;;5048245;28;20447;-86
2022/11/30 09:56:31;;;;;;;17.27;7.67;;;6.10;97.30;;;;;;5053153;28;20442;-85
2022/11/30 09:59:20;;;;;;;14.37;5.50;;;6.10;97.30;;;;;;5054567;28;20453;-83
2022/11/30 10:01:47;;;;;;;9.33;7.00;;;6.10;97.30;;;;;;5055650;28;20830;-84
2022/11/30 10:04:27;;;;;;;21.43;9.40;;;6.10;97.30;;;;;;5055382;28;20994;-83
2022/11/30 10:07:14;;;;;;;8.30;7.23;;;6.10;97.30;;;;;;5041404;28;20446;-85
2022/11/30 10:10:01;;;;;;;15.50;8.00;;;6.20;97.30;;;;;;5048175;28;20412;-85
2022/11/30 10:12:39;;;;;;;23.53;8.37;;;6.20;97.30;;;;;;5053557;28;20472;-82
2022/11/30 10:15:16;;;;;;;14.13;6.03;;;6.20;97.30;;;;;;5052548;28;20489;-86
2022/11/30 10:18:00;;;;;;;11.47;9.20;;;6.30;97.30;;;;;;5043608;28;20417;-86
2022/11/30 10:20:47;;;;;;;17.17;7.60;;;6.40;97.30;;;;;;5052622;28;20418;-87
2022/11/30 10:23:41;;;;;;;14.33;7.17;;;6.40;97.30;;;;;;5051575;28;20421;-87
2022/11/30 10:26:31;;;;;;;14.70;10.10;;;6.40;97.30;;;;;;5040043;28;20417;-87
2022/11/30 10:29:09;;;;;;;14.33;10.07;;;6.40;97.30;;;;;;5051531;28;20712;-87
2022/11/30 10:31:38;;;;;;;10.83;7.03;;;6.50;97.30;;;;;;5051756;28;20414;-86
2022/11/30 10:34:32;;;;;;;17.83;8.93;;;6.50;97.30;;;;;;5051516;28;20541;-87
2022/11/30 10:37:18;;;;;;;6.53;5.73;;;6.50;97.30;;;;;;5051407;28;20880;-87
2022/11/30 10:39:55;;;;;;;7.77;6.83;;;6.40;97.30;;;;;;5051561;28;20422;-87
2022/11/30 10:42:51;;;;;;;11.73;6.77;;;6.50;97.30;;;;;;5050885;28;20442;-87
2022/11/30 10:45:20;;;;;;;25.03;9.77;;;6.50;97.30;;;;;;5045767;28;20446;-86
2022/11/30 10:47:55;;;;;;;14.33;6.57;;;6.50;97.30;;;;;;5044497;28;20439;-87
2022/11/30 10:50:26;;;;;;;8.37;5.77;;;6.60;97.30;;;;;;5050972;28;20410;-87
2022/11/30 10:52:55;;;;;;;16.13;6.43;;;6.60;97.30;;;;;;5051055;28;20787;-86
2022/11/30 10:55:24;;;;;;;11.70;10.37;;;6.60;97.30;;;;;;5059914;28;20448;-87
2022/11/30 10:57:59;;;;;;;17.87;6.70;;;6.70;97.30;;;;;;5051223;28;20419;-87
2022/11/30 11:00:24;;;;;;;15.03;7.00;;;6.70;97.30;;;;;;5051214;28;20962;-87
2022/11/30 11:02:51;;;;;;;14.00;4.93;;;6.80;97.30;;;;;;5050939;28;20415;-86
2022/11/30 11:05:28;;;;;;;11.87;7.90;;;6.80;97.30;;;;;;5050846;28;20752;-87
2022/11/30 11:07:55;;;;;;;13.80;5.70;;;6.80;97.30;;;;;;5051043;28;20414;-86
2022/11/30 11:10:34;;;;;;;8.00;5.00;;;6.80;97.30;;;;;;5050715;28;20414;-87
2022/11/30 11:13:00;;;;;;;12.60;6.30;;;6.80;97.30;;;;;;5050853;28;20414;-87
2022/11/30 11:15:31;;;;;;;9.23;7.47;;;6.90;97.30;;;;;;5050436;28;20524;-87
2022/11/30 11:18:15;;;;;;;17.73;6.37;;;6.90;97.30;;;;;;5053413;28;20191;-86
2022/11/30 11:20:44;;;;;;;10.80;7.20;;;7.00;97.30;;;;;;5071079;28;20437;-87
2022/11/30 11:23:21;;;;;;;39.53;10.97;;;7.00;97.30;;;;;;5054823;28;20472;-87
2022/11/30 11:25:52;;;;;;;11.20;5.30;;;7.00;97.30;;;;;;5043450;28;20413;-86
2022/11/30 11:28:20;;;;;;;20.57;6.20;;;7.10;97.30;;;;;;5054726;28;20422;-87
2022/11/30 11:30:46;;;;;;;16.43;7.57;;;7.10;97.30;;;;;;5054503;28;20493;-87
2022/11/30 11:33:12;;;;;;;15.00;9.20;;;7.10;97.30;;;;;;5052067;28;20421;-87
2022/11/30 11:35:40;;;;;;;10.07;8.13;;;7.20;97.30;;;;;;5043689;28;20825;-87
2022/11/30 11:38:37;;;;;;;22.23;9.27;;;7.20;97.30;;;;;;5055058;28;20413;-86
2022/11/30 11:41:11;;;;;;;6.10;4.30;;;7.20;97.30;;;;;;5050026;28;20425;-87
2022/11/30 11:44:06;;;;;;;11.13;5.47;;;7.30;97.30;;;;;;5042923;28;20843;-87
2022/11/30 11:46:35;;;;;;;17.90;9.27;;;7.30;97.30;;;;;;5054108;28;20402;-87
2022/11/30 11:49:05;;;;;;;8.83;6.07;;;7.40;97.30;;;;;;5054403;28;20486;-86
2022/11/30 11:51:38;;;;;;;16.77;7.03;;;7.50;97.30;;;;;;5053278;28;20425;-87
2022/11/30 11:54:25;;;;;;;10.60;8.57;;;7.60;97.30;;;;;;5054070;28;20492;-87
2022/11/30 11:56:53;;;;;;;14.70;8.67;;;7.60;97.30;;;;;;5054102;28;20449;-86
2022/11/30 11:59:40;;;;;;;18.00;6.17;;;7.70;97.30;;;;;;5049971;28;20434;-86
2022/11/30 12:02:36;;;;;;;12.73;6.40;;;7.60;97.30;;;;;;5049273;28;20417;-87
2022/11/30 12:05:19;;;;;;;8.90;6.13;;;7.60;97.30;;;;;;5053858;28;20492;-87
2022/11/30 12:08:11;;;;;;;16.03;9.40;;;7.60;97.30;;;;;;5070091;28;20497;-87
2022/11/30 12:10:50;;;;;;;12.20;8.57;;;7.50;97.30;;;;;;5054801;28;20425;-87
2022/11/30 12:13:18;;;;;;;24.63;8.87;;;7.50;97.30;;;;;;5053818;28;20411;-88
2022/11/30 12:16:10;;;;;;;7.67;7.07;;;7.50;97.30;;;;;;5053773;28;20490;-87
2022/11/30 12:18:59;;;;;;;13.40;6.33;;;7.50;97.30;;;;;;5054068;28;20414;-87
2022/11/30 12:21:24;;;;;;;20.17;7.03;;;7.50;97.30;;;;;;5044044;28;21051;-87
2022/11/30 12:24:25;;;;;;;9.40;4.97;;;7.50;97.30;;;;;;5053722;28;20509;-87
2022/11/30 12:26:58;;;;;;;15.50;7.10;;;7.50;97.30;;;;;;5013968;28;20579;-87
2022/11/30 12:29:47;;;;;;;10.77;4.30;;;7.50;97.30;;;;;;5061402;28;20410;-87
2022/11/30 12:32:32;;;;;;;13.63;8.13;;;7.30;97.30;;;;;;5041044;28;20415;-87
2022/11/30 12:35:33;;;;;;;18.00;6.77;;;7.20;97.30;;;;;;5053526;28;20473;-87
2022/11/30 12:38:17;;;;;;;11.50;5.50;;;7.20;97.30;;;;;;5053024;28;20513;-87
2022/11/30 12:41:06;;;;;;;9.47;4.90;;;7.10;97.30;;;;;;5040014;28;20426;-87
2022/11/30 12:44:06;;;;;;;15.93;9.03;;;7.00;97.30;;;;;;5053275;28;20875;-87
2022/11/30 12:47:15;;;;;;;15.90;5.77;;;7.00;97.30;;;;;;5053392;28;20418;-87
2022/11/30 12:49:53;;;;;;;14.07;8.53;;;6.90;97.30;;;;;;5051923;28;20414;-87
2022/11/30 12:52:18;;;;;;;6.33;5.00;;;6.90;97.30;;;;;;5053142;28;20418;-87
2022/11/30 12:55:02;;;;;;;14.30;7.17;;;6.90;97.30;;;;;;5053190;28;20438;-87
2022/11/30 12:57:37;;;;;;;14.87;5.97;;;7.00;97.30;;;;;;5053412;28;20208;-87
2022/11/30 13:00:14;;;;;;;5.50;4.27;;;7.10;97.30;;;;;;5052846;28;20424;-87
2022/11/30 13:02:43;;;;;;;11.33;6.47;;;7.20;97.30;;;;;;5053277;28;20441;-87
2022/11/30 13:05:14;;;;;;;11.90;6.77;;;7.30;97.30;;;;;;5049659;28;20529;-87
2022/11/30 13:07:58;;;;;;;11.40;5.13;;;7.30;97.30;;;;;;5052730;28;20407;-87
2022/11/30 13:10:33;;;;;;;9.07;5.70;;;7.30;97.30;;;;;;5052455;28;20425;-87
2022/11/30 13:13:03;;;;;;;15.93;3.93;;;7.50;97.30;;;;;;5040832;28;20416;-87
2022/11/30 13:15:32;;;;;;;10.50;4.90;;;7.60;97.30;;;;;;5051796;28;20559;-87
2022/11/30 13:18:00;;;;;;;7.63;3.73;;;7.70;97.30;;;;;;5052736;28;20410;-87
2022/11/30 13:20:54;;;;;;;10.73;4.83;;;7.90;97.30;;;;;;5052177;28;20440;-88
2022/11/30 13:23:45;;;;;;;6.27;5.60;;;8.10;97.30;;;;;;5052542;28;20871;-87
2022/11/30 13:26:41;;;;;;;8.50;5.63;;;8.30;97.30;;;;;;5052331;28;20434;-86
2022/11/30 13:29:28;;;;;;;9.40;5.73;;;8.50;97.30;;;;;;5040050;28;20495;-87
2022/11/30 13:32:16;;;;;;;22.47;7.80;;;8.60;97.30;;;;;;5052083;28;20653;-87